Time;durP1;ratioP1;P1;durP2;ratioP2;P2;SDS_P1;SDS_P2;PMS_P1;PMS_P2;Temp;Humidity;BMP_temperature;BMP_pressure;BME280_temperature;BME280_humidity;BME280_pressure;Samples;Min_cycle;Max_cycle;Signal;HPM_P1;HPM_P2
2023/09/24 00:00:26;;;;;;;3.27;3.03;;;9.60;99.90;;;;;;5024466;28;20221;-66
2023/09/24 00:02:54;;;;;;;4.73;2.90;;;9.60;99.90;;;;;;5019201;28;20255;-66
2023/09/24 00:05:24;;;;;;;5.73;3.20;;;9.60;99.90;;;;;;5023361;28;20213;-66
2023/09/24 00:07:53;;;;;;;3.57;3.00;;;9.60;99.90;;;;;;5023228;28;20284;-65
2023/09/24 00:10:22;;;;;;;5.87;3.37;;;9.60;99.90;;;;;;5024593;28;20191;-66
2023/09/24 00:12:50;;;;;;;4.60;3.40;;;9.60;99.90;;;;;;5024198;28;20230;-66
2023/09/24 00:15:19;;;;;;;4.93;3.27;;;9.60;99.90;;;;;;5026579;28;20221;-66
2023/09/24 00:17:47;;;;;;;6.53;3.27;;;9.70;99.90;;;;;;5024794;28;20232;-66
2023/09/24 00:20:16;;;;;;;4.37;3.50;;;9.60;99.90;;;;;;5023766;28;20279;-66
2023/09/24 00:22:47;;;;;;;5.07;3.17;;;9.50;99.90;;;;;;5023106;28;20687;-66
2023/09/24 00:25:15;;;;;;;6.90;3.30;;;9.50;99.90;;;;;;5022134;28;20269;-67
2023/09/24 00:27:44;;;;;;;3.57;3.27;;;9.50;99.90;;;;;;5040287;28;20225;-66
2023/09/24 00:30:15;;;;;;;3.23;3.03;;;9.40;99.90;;;;;;5026252;28;20352;-66
2023/09/24 00:32:43;;;;;;;6.80;3.63;;;9.40;99.90;;;;;;5023212;28;20229;-66
2023/09/24 00:35:12;;;;;;;4.67;3.10;;;9.40;99.90;;;;;;5023078;28;20349;-66
2023/09/24 00:37:41;;;;;;;5.83;3.10;;;9.30;99.90;;;;;;5029057;28;20221;-66
2023/09/24 00:40:12;;;;;;;5.77;3.27;;;9.30;99.90;;;;;;5026621;28;20224;-66
2023/09/24 00:42:41;;;;;;;8.90;3.10;;;9.30;99.90;;;;;;5020159;28;20228;-66
2023/09/24 00:45:11;;;;;;;5.10;3.37;;;9.20;99.90;;;;;;5024169;28;20221;-66
2023/09/24 00:47:45;;;;;;;7.37;3.30;;;9.30;99.90;;;;;;5025593;28;20639;-66
2023/09/24 00:50:15;;;;;;;3.17;3.00;;;9.20;99.90;;;;;;5024194;28;20610;-66
2023/09/24 00:52:45;;;;;;;3.60;3.30;;;9.20;99.90;;;;;;5023307;28;20283;-66
2023/09/24 00:55:17;;;;;;;3.33;3.07;;;9.20;99.90;;;;;;5028275;28;20280;-66
2023/09/24 00:57:48;;;;;;;3.77;3.07;;;9.20;99.90;;;;;;5024027;28;20231;-66
2023/09/24 01:00:19;;;;;;;5.07;3.40;;;9.10;99.90;;;;;;5027929;28;20244;-66
2023/09/24 01:02:50;;;;;;;5.60;3.97;;;9.20;99.90;;;;;;5023421;28;20209;-66
2023/09/24 01:05:19;;;;;;;5.00;3.43;;;9.20;99.90;;;;;;5026041;28;20229;-67
2023/09/24 01:07:48;;;;;;;7.90;4.30;;;9.30;99.90;;;;;;5024264;28;20304;-66
2023/09/24 01:10:18;;;;;;;8.30;4.00;;;9.30;99.90;;;;;;5026258;28;20237;-66
2023/09/24 01:12:58;;;;;;;5.20;4.40;;;9.30;99.90;;;;;;5023314;28;20325;-66
2023/09/24 01:15:28;;;;;;;5.13;3.83;;;9.30;99.90;;;;;;5024477;28;20232;-66
2023/09/24 01:17:57;;;;;;;7.00;4.40;;;9.30;99.90;;;;;;5025203;28;20257;-66
2023/09/24 01:20:28;;;;;;;6.60;3.90;;;9.30;99.90;;;;;;5024226;28;20257;-67
2023/09/24 01:23:01;;;;;;;7.37;4.10;;;9.30;99.90;;;;;;5022002;28;20189;-66
2023/09/24 01:25:34;;;;;;;3.67;3.33;;;9.30;99.90;;;;;;5027447;28;20197;-66
2023/09/24 01:28:04;;;;;;;6.50;3.97;;;9.30;99.90;;;;;;5026840;28;20233;-66
2023/09/24 01:30:33;;;;;;;5.50;4.00;;;9.30;99.90;;;;;;5037342;28;20227;-66
2023/09/24 01:33:02;;;;;;;7.10;3.63;;;9.20;99.90;;;;;;5042505;28;20263;-66
2023/09/24 01:35:34;;;;;;;4.80;3.63;;;9.20;99.90;;;;;;5024323;28;20225;-66
2023/09/24 01:38:06;;;;;;;4.03;3.60;;;9.20;99.90;;;;;;5023366;28;20202;-66
2023/09/24 01:40:37;;;;;;;6.30;3.57;;;9.10;99.90;;;;;;5022047;28;20185;-66
2023/09/24 01:43:07;;;;;;;4.00;3.60;;;9.10;99.90;;;;;;5022170;28;20222;-66
2023/09/24 01:45:39;;;;;;;4.50;3.60;;;9.00;99.90;;;;;;5020670;28;20239;-67
2023/09/24 01:48:07;;;;;;;3.77;3.33;;;9.00;99.90;;;;;;5024437;28;20218;-66
2023/09/24 01:50:37;;;;;;;5.43;3.50;;;9.00;99.90;;;;;;5022649;28;20252;-66
2023/09/24 01:53:09;;;;;;;4.57;3.50;;;8.90;99.90;;;;;;5022394;28;21036;-66
2023/09/24 01:55:38;;;;;;;6.20;4.10;;;8.90;99.90;;;;;;5019375;28;20210;-66
2023/09/24 01:58:06;;;;;;;10.07;4.50;;;9.00;99.90;;;;;;5021252;28;20542;-66
2023/09/24 02:00:36;;;;;;;9.33;4.67;;;9.00;99.90;;;;;;5023216;28;20231;-66
2023/09/24 02:03:07;;;;;;;10.30;4.40;;;9.00;99.90;;;;;;5021002;28;20387;-66
2023/09/24 02:05:38;;;;;;;9.07;4.67;;;9.00;99.90;;;;;;5027866;28;20557;-66
2023/09/24 02:08:10;;;;;;;4.90;4.33;;;9.10;99.90;;;;;;5022969;28;20221;-66
2023/09/24 02:10:40;;;;;;;6.97;4.50;;;9.10;99.90;;;;;;5023524;28;20193;-66
2023/09/24 02:13:11;;;;;;;5.43;4.93;;;9.10;99.90;;;;;;5040956;28;20676;-66
2023/09/24 02:15:39;;;;;;;9.80;4.97;;;9.10;99.90;;;;;;5022581;28;20348;-66
2023/09/24 02:18:09;;;;;;;6.17;4.87;;;9.20;99.90;;;;;;5023158;28;20228;-66
2023/09/24 02:20:38;;;;;;;6.90;4.87;;;9.20;99.90;;;;;;5021701;28;20840;-67
2023/09/24 02:23:10;;;;;;;8.17;4.57;;;9.20;99.90;;;;;;5023336;28;20284;-66
2023/09/24 02:25:38;;;;;;;7.13;4.83;;;9.20;99.90;;;;;;5024736;28;20191;-66
2023/09/24 02:28:07;;;;;;;6.37;4.63;;;9.20;99.90;;;;;;5025369;28;20224;-66
2023/09/24 02:30:36;;;;;;;6.80;4.60;;;9.20;99.90;;;;;;5022917;28;20580;-66
2023/09/24 02:33:05;;;;;;;9.33;4.73;;;9.20;99.90;;;;;;5021934;28;20275;-66
2023/09/24 02:35:34;;;;;;;6.47;4.47;;;9.30;99.90;;;;;;5023407;28;20251;-66
2023/09/24 02:38:04;;;;;;;9.83;5.10;;;9.30;99.90;;;;;;5020996;28;20190;-67
2023/09/24 02:40:34;;;;;;;6.40;4.50;;;9.30;99.90;;;;;;5021767;28;20267;-67
2023/09/24 02:43:04;;;;;;;9.37;4.97;;;9.30;99.90;;;;;;5020907;28;20225;-67
2023/09/24 02:45:33;;;;;;;9.50;5.00;;;9.30;99.90;;;;;;5021146;28;20219;-67
2023/09/24 02:48:04;;;;;;;6.83;4.70;;;9.30;99.90;;;;;;5022708;28;20220;-67
2023/09/24 02:50:33;;;;;;;8.23;5.10;;;9.30;99.90;;;;;;5022072;28;20221;-67
2023/09/24 02:53:04;;;;;;;10.13;4.80;;;9.30;99.90;;;;;;5028196;28;20283;-64
2023/09/24 02:55:36;;;;;;;6.10;5.50;;;9.30;99.90;;;;;;5024319;28;20216;-65
2023/09/24 02:58:05;;;;;;;10.57;5.77;;;9.30;99.90;;;;;;5021524;28;20305;-65
2023/09/24 03:00:36;;;;;;;8.47;5.03;;;9.30;99.90;;;;;;5022047;28;20224;-65
2023/09/24 03:03:06;;;;;;;9.03;5.73;;;9.30;99.90;;;;;;5024323;28;20221;-65
2023/09/24 03:05:35;;;;;;;12.50;5.57;;;9.30;99.90;;;;;;5024943;28;20229;-65
2023/09/24 03:08:04;;;;;;;7.13;5.23;;;9.30;99.90;;;;;;5020575;28;20197;-65
2023/09/24 03:10:36;;;;;;;6.93;5.10;;;9.30;99.90;;;;;;5026931;28;20530;-65
2023/09/24 03:13:05;;;;;;;9.10;5.40;;;9.20;99.90;;;;;;5039991;28;20694;-66
2023/09/24 03:15:34;;;;;;;7.70;5.27;;;9.20;99.90;;;;;;5021405;28;20217;-66
2023/09/24 03:18:03;;;;;;;8.60;5.57;;;9.20;99.90;;;;;;5022509;28;20232;-65
2023/09/24 03:20:31;;;;;;;13.07;5.80;;;9.20;99.90;;;;;;5024130;28;20225;-66
2023/09/24 03:23:03;;;;;;;6.80;5.60;;;9.20;99.90;;;;;;5024276;28;20194;-65
2023/09/24 03:25:34;;;;;;;6.80;5.20;;;9.20;99.90;;;;;;5022914;28;20185;-66
2023/09/24 03:28:02;;;;;;;11.07;5.40;;;9.20;99.90;;;;;;5039586;28;20237;-66
2023/09/24 03:30:31;;;;;;;10.77;5.73;;;9.20;99.90;;;;;;5022051;28;20248;-66
2023/09/24 03:33:00;;;;;;;9.93;4.97;;;9.20;99.90;;;;;;5021736;28;20304;-66
2023/09/24 03:35:29;;;;;;;7.03;5.60;;;9.10;99.90;;;;;;5021680;28;20617;-66
2023/09/24 03:37:58;;;;;;;9.17;5.30;;;9.10;99.90;;;;;;5020906;28;20275;-65
2023/09/24 03:40:28;;;;;;;7.10;5.23;;;9.10;99.90;;;;;;5020598;28;20198;-67
2023/09/24 03:42:59;;;;;;;7.67;4.83;;;9.10;99.90;;;;;;5022065;28;20213;-66
2023/09/24 03:45:28;;;;;;;11.97;5.77;;;9.10;99.90;;;;;;5021782;28;20240;-66
2023/09/24 03:47:56;;;;;;;9.13;5.30;;;9.10;99.90;;;;;;5023377;28;20213;-66
2023/09/24 03:50:26;;;;;;;9.67;5.50;;;9.10;99.90;;;;;;5025752;28;20221;-66
2023/09/24 03:52:56;;;;;;;9.17;5.83;;;9.00;99.90;;;;;;5025428;28;20193;-66
2023/09/24 03:55:25;;;;;;;11.97;5.73;;;9.00;99.90;;;;;;5026101;28;20213;-66
2023/09/24 03:57:54;;;;;;;9.23;5.67;;;9.10;99.90;;;;;;5022782;28;20311;-66
2023/09/24 04:00:25;;;;;;;9.43;5.53;;;9.00;99.90;;;;;;5024947;28;20308;-66
2023/09/24 04:02:55;;;;;;;7.77;5.30;;;9.00;99.90;;;;;;5024845;28;20216;-66
2023/09/24 04:05:24;;;;;;;8.43;5.50;;;9.00;99.90;;;;;;5024682;28;20591;-66
2023/09/24 04:07:55;;;;;;;11.33;6.40;;;9.00;99.90;;;;;;5027986;28;20549;-66
2023/09/24 04:10:27;;;;;;;8.80;6.37;;;9.00;99.90;;;;;;5022157;28;20198;-66
2023/09/24 04:12:57;;;;;;;6.33;5.73;;;9.00;99.90;;;;;;5032738;28;20256;-66
2023/09/24 04:15:29;;;;;;;14.83;5.47;;;9.00;99.90;;;;;;5027441;28;20228;-66
2023/09/24 04:18:00;;;;;;;7.03;5.63;;;9.10;99.90;;;;;;5029543;28;20276;-66
2023/09/24 04:20:33;;;;;;;8.43;5.23;;;9.00;99.90;;;;;;5028472;28;20248;-66
2023/09/24 04:23:02;;;;;;;6.23;5.43;;;9.00;99.90;;;;;;5022400;28;20285;-66
2023/09/24 04:25:31;;;;;;;11.03;5.40;;;8.90;99.90;;;;;;5026552;28;20204;-66
2023/09/24 04:27:59;;;;;;;9.07;5.67;;;8.90;99.90;;;;;;5026513;28;20221;-67
2023/09/24 04:30:29;;;;;;;6.07;5.37;;;8.90;99.90;;;;;;5022149;28;20684;-66
2023/09/24 04:32:58;;;;;;;6.07;5.17;;;8.90;99.90;;;;;;5025789;28;20221;-66
2023/09/24 04:35:27;;;;;;;7.30;5.20;;;8.90;99.90;;;;;;5029202;28;20923;-66
2023/09/24 04:37:57;;;;;;;10.73;5.53;;;8.90;99.90;;;;;;5025284;28;20208;-66
2023/09/24 04:40:26;;;;;;;8.67;4.90;;;8.90;99.90;;;;;;5027463;28;20210;-66
2023/09/24 04:42:55;;;;;;;8.87;4.97;;;8.80;99.90;;;;;;5024051;28;20304;-66
2023/09/24 04:45:23;;;;;;;5.73;5.17;;;8.80;99.90;;;;;;5024732;28;20314;-66
2023/09/24 04:47:53;;;;;;;6.20;5.63;;;8.80;99.90;;;;;;5025352;28;20229;-66
2023/09/24 04:50:25;;;;;;;7.80;5.40;;;8.70;99.90;;;;;;5025223;28;20680;-67
2023/09/24 04:52:55;;;;;;;10.47;5.47;;;8.70;99.90;;;;;;5023554;28;20637;-66
2023/09/24 04:55:24;;;;;;;7.33;5.10;;;8.70;99.90;;;;;;5019224;28;20529;-66
2023/09/24 04:57:53;;;;;;;10.50;5.70;;;8.70;99.90;;;;;;5024152;28;20221;-66
2023/09/24 05:00:22;;;;;;;8.63;5.87;;;8.80;99.90;;;;;;5039988;28;20229;-66
2023/09/24 05:02:50;;;;;;;8.17;5.27;;;8.80;99.90;;;;;;5023644;28;20595;-66
2023/09/24 05:05:21;;;;;;;5.50;5.00;;;8.70;99.90;;;;;;5023898;28;20588;-66
2023/09/24 05:07:53;;;;;;;6.43;5.00;;;8.70;99.90;;;;;;5023736;28;20197;-66
2023/09/24 05:10:22;;;;;;;9.53;5.33;;;8.70;99.90;;;;;;5025311;28;20822;-66
2023/09/24 05:12:50;;;;;;;9.60;5.40;;;8.80;99.90;;;;;;5024285;28;20232;-66
2023/09/24 05:15:19;;;;;;;12.73;5.43;;;8.80;99.90;;;;;;5020736;28;20304;-66
2023/09/24 05:17:47;;;;;;;7.73;5.37;;;8.80;99.90;;;;;;5024115;28;20226;-66
2023/09/24 05:20:17;;;;;;;11.23;5.83;;;8.80;99.90;;;;;;5024573;28;20296;-66
2023/09/24 05:22:46;;;;;;;7.50;5.53;;;8.90;99.90;;;;;;5026255;28;20208;-66
2023/09/24 05:25:15;;;;;;;9.77;5.80;;;8.90;99.90;;;;;;5025166;28;20318;-66
2023/09/24 05:27:43;;;;;;;9.10;5.57;;;8.90;99.90;;;;;;5020085;28;20210;-66
2023/09/24 05:30:12;;;;;;;7.80;5.20;;;8.90;99.90;;;;;;5026282;28;20230;-66
2023/09/24 05:32:40;;;;;;;8.43;5.27;;;8.90;99.90;;;;;;5025684;28;20726;-66
2023/09/24 05:35:09;;;;;;;13.43;5.80;;;8.90;99.90;;;;;;5023472;28;20281;-66
2023/09/24 05:37:39;;;;;;;12.70;5.73;;;9.00;99.90;;;;;;5026916;28;20213;-66
2023/09/24 05:40:11;;;;;;;9.90;5.30;;;8.90;99.90;;;;;;5021875;28;20229;-66
2023/09/24 05:42:41;;;;;;;6.67;5.23;;;8.90;99.90;;;;;;5024485;28;20225;-66
2023/09/24 05:45:10;;;;;;;7.57;5.23;;;9.00;99.90;;;;;;5021492;28;20225;-66
2023/09/24 05:47:39;;;;;;;9.17;5.50;;;8.90;99.90;;;;;;5022481;28;20221;-66
2023/09/24 05:50:08;;;;;;;8.03;5.30;;;8.90;99.90;;;;;;5023549;28;20236;-66
2023/09/24 05:52:36;;;;;;;12.23;5.70;;;9.00;99.90;;;;;;5023691;28;20207;-66
2023/09/24 05:55:06;;;;;;;7.40;5.00;;;9.10;99.90;;;;;;5024730;28;20222;-66
2023/09/24 05:57:35;;;;;;;8.60;4.90;;;9.00;99.90;;;;;;5020722;28;20225;-66
2023/09/24 06:00:05;;;;;;;7.57;5.47;;;9.00;99.90;;;;;;5019097;28;20222;-66
2023/09/24 06:02:34;;;;;;;9.83;5.23;;;9.10;99.90;;;;;;5024695;28;20221;-66
2023/09/24 06:05:03;;;;;;;7.13;4.87;;;9.20;99.90;;;;;;5025680;28;20623;-65
2023/09/24 06:07:31;;;;;;;10.83;5.20;;;9.20;99.90;;;;;;5024431;28;20186;-66
2023/09/24 06:10:04;;;;;;;7.23;4.83;;;9.20;99.90;;;;;;5026496;28;20589;-66
2023/09/24 06:12:34;;;;;;;9.57;5.10;;;9.30;99.90;;;;;;5021626;28;20221;-66
2023/09/24 06:15:03;;;;;;;9.37;4.73;;;9.30;99.90;;;;;;5023805;28;20261;-66
2023/09/24 06:17:33;;;;;;;7.07;4.67;;;9.30;99.90;;;;;;5020561;28;20225;-66
2023/09/24 06:20:03;;;;;;;6.90;5.00;;;9.30;99.90;;;;;;5024673;28;20298;-65
2023/09/24 06:22:31;;;;;;;7.37;4.93;;;9.40;99.90;;;;;;5023478;28;20224;-65
2023/09/24 06:24:59;;;;;;;8.80;4.57;;;9.40;99.90;;;;;;5022339;28;20251;-65
2023/09/24 06:27:28;;;;;;;10.83;5.00;;;9.40;99.90;;;;;;5030621;28;20218;-65
2023/09/24 06:29:58;;;;;;;8.03;4.80;;;9.40;99.90;;;;;;5023215;28;20240;-66
2023/09/24 06:32:29;;;;;;;7.47;4.60;;;9.50;99.90;;;;;;5025124;28;20235;-67
2023/09/24 06:34:57;;;;;;;10.47;5.17;;;9.60;99.90;;;;;;5022339;28;20205;-65
2023/09/24 06:37:26;;;;;;;9.90;5.30;;;9.60;99.90;;;;;;5022234;28;20208;-65
2023/09/24 06:39:54;;;;;;;7.90;5.03;;;9.70;99.90;;;;;;5024619;28;20304;-65
2023/09/24 06:42:23;;;;;;;6.20;4.63;;;9.70;99.90;;;;;;5025177;28;20220;-65
2023/09/24 06:44:51;;;;;;;8.53;5.00;;;9.90;99.90;;;;;;5024464;28;20226;-66
2023/09/24 06:47:20;;;;;;;7.40;5.20;;;9.90;99.90;;;;;;5022284;28;20224;-65
2023/09/24 06:49:49;;;;;;;7.03;4.80;;;10.00;99.90;;;;;;5024208;28;20248;-66
2023/09/24 06:52:18;;;;;;;8.07;4.87;;;10.10;99.90;;;;;;5025384;28;20588;-65
2023/09/24 06:54:46;;;;;;;10.33;5.30;;;10.20;99.90;;;;;;5020495;28;20353;-65
2023/09/24 06:57:16;;;;;;;12.17;5.93;;;10.40;99.90;;;;;;5027638;28;20704;-65
2023/09/24 06:59:44;;;;;;;8.00;4.60;;;10.60;99.90;;;;;;5029617;28;20226;-65
2023/09/24 07:02:13;;;;;;;8.47;5.00;;;10.80;99.90;;;;;;5025239;28;20294;-65
2023/09/24 07:04:44;;;;;;;11.13;5.27;;;11.10;99.90;;;;;;5038742;28;20568;-65
2023/09/24 07:07:13;;;;;;;7.87;4.80;;;11.30;99.90;;;;;;5023405;28;20259;-65
2023/09/24 07:09:41;;;;;;;7.13;4.60;;;11.60;99.90;;;;;;5021706;28;20225;-65
2023/09/24 07:12:09;;;;;;;9.17;5.17;;;11.80;99.90;;;;;;5022235;28;20580;-66
2023/09/24 07:14:38;;;;;;;10.20;5.03;;;12.10;99.90;;;;;;5026090;28;20693;-65
2023/09/24 07:17:06;;;;;;;9.00;5.07;;;12.30;99.90;;;;;;5019707;28;20228;-65
2023/09/24 07:19:35;;;;;;;12.57;4.90;;;12.50;99.90;;;;;;5029465;28;20245;-66
2023/09/24 07:22:05;;;;;;;10.17;5.50;;;12.70;99.90;;;;;;5042216;28;20248;-66
2023/09/24 07:24:34;;;;;;;13.97;5.50;;;12.80;99.90;;;;;;5029234;28;20221;-65
2023/09/24 07:27:03;;;;;;;8.03;5.23;;;12.90;99.90;;;;;;5030869;28;20256;-66
2023/09/24 07:29:33;;;;;;;9.70;5.40;;;13.10;99.90;;;;;;5029172;28;20228;-66
2023/09/24 07:32:02;;;;;;;11.40;5.90;;;13.20;99.90;;;;;;5028577;28;20205;-65
2023/09/24 07:34:31;;;;;;;13.57;6.60;;;13.40;99.90;;;;;;5030324;28;20194;-65
2023/09/24 07:36:59;;;;;;;13.30;5.50;;;13.50;99.90;;;;;;5020601;28;20632;-65
2023/09/24 07:39:43;;;;;;;13.60;5.87;;;13.70;99.90;;;;;;5021431;28;20309;-64
2023/09/24 07:42:12;;;;;;;11.23;6.00;;;13.80;99.90;;;;;;5022267;28;20227;-65
2023/09/24 07:44:41;;;;;;;12.50;6.37;;;14.00;99.90;;;;;;5027368;28;20222;-66
2023/09/24 07:47:10;;;;;;;13.33;6.00;;;14.10;99.90;;;;;;5025605;28;20198;-66
2023/09/24 07:49:38;;;;;;;11.53;5.77;;;14.10;99.90;;;;;;5027374;28;20200;-66
2023/09/24 07:52:06;;;;;;;11.53;5.73;;;14.30;99.90;;;;;;5025370;28;20215;-66
2023/09/24 07:54:35;;;;;;;10.40;5.50;;;14.30;99.90;;;;;;5025218;28;20303;-66
2023/09/24 07:57:05;;;;;;;9.80;5.30;;;14.40;99.90;;;;;;5041211;28;20647;-65
2023/09/24 07:59:34;;;;;;;7.20;4.80;;;14.60;99.90;;;;;;5027651;28;20231;-66
2023/09/24 08:02:02;;;;;;;6.40;4.63;;;14.70;99.90;;;;;;5026650;28;20347;-66
2023/09/24 08:04:33;;;;;;;9.80;4.57;;;14.80;99.90;;;;;;5023804;28;20763;-65
2023/09/24 08:07:02;;;;;;;10.83;4.63;;;14.90;99.90;;;;;;5027037;28;20224;-66
2023/09/24 08:09:30;;;;;;;5.47;4.03;;;15.00;99.90;;;;;;5025257;28;20210;-66
2023/09/24 08:12:00;;;;;;;6.07;3.80;;;15.20;99.90;;;;;;5022426;28;20228;-66
2023/09/24 08:14:30;;;;;;;7.03;3.70;;;15.30;99.90;;;;;;5022270;28;20304;-65
2023/09/24 08:16:58;;;;;;;7.87;4.10;;;15.50;99.90;;;;;;5024732;28;20967;-66
2023/09/24 08:19:30;;;;;;;6.33;3.50;;;15.60;99.90;;;;;;5027509;28;20211;-66
2023/09/24 08:21:59;;;;;;;5.33;3.30;;;15.70;99.90;;;;;;5023644;28;20273;-66
2023/09/24 08:24:28;;;;;;;4.63;3.43;;;15.80;99.90;;;;;;5024911;28;20257;-66
2023/09/24 08:26:56;;;;;;;6.40;3.50;;;15.80;99.90;;;;;;5019742;28;20221;-65
2023/09/24 08:29:25;;;;;;;3.90;3.00;;;15.90;99.90;;;;;;5023621;28;20236;-66
2023/09/24 08:31:55;;;;;;;9.40;3.50;;;16.10;99.90;;;;;;5025965;28;20242;-66
2023/09/24 08:34:23;;;;;;;8.57;3.30;;;16.30;99.90;;;;;;5026143;28;20549;-66
2023/09/24 08:36:52;;;;;;;3.83;2.70;;;16.30;99.90;;;;;;5018557;28;20983;-66
2023/09/24 08:39:21;;;;;;;3.43;3.07;;;16.40;99.90;;;;;;5022152;28;20225;-66
2023/09/24 08:41:53;;;;;;;5.63;3.10;;;16.50;99.90;;;;;;5021557;28;20201;-65
2023/09/24 08:44:25;;;;;;;4.97;2.93;;;16.50;99.90;;;;;;5026631;28;20199;-67
2023/09/24 08:46:56;;;;;;;4.60;3.10;;;16.70;99.90;;;;;;5023742;28;20233;-67
2023/09/24 08:49:25;;;;;;;6.13;2.80;;;16.80;99.90;;;;;;5025829;28;20225;-67
2023/09/24 08:51:55;;;;;;;4.97;2.77;;;17.00;99.90;;;;;;5018634;28;20620;-66
2023/09/24 08:54:24;;;;;;;5.13;2.73;;;17.10;99.90;;;;;;5020863;28;20236;-67
2023/09/24 08:56:53;;;;;;;5.70;2.50;;;17.00;99.90;;;;;;5027352;28;20232;-67
2023/09/24 08:59:21;;;;;;;3.20;1.97;;;17.00;99.90;;;;;;5016030;28;20224;-67
2023/09/24 09:01:55;;;;;;;3.53;2.33;;;17.10;99.90;;;;;;5019933;28;20222;-67
2023/09/24 09:04:23;;;;;;;5.47;2.83;;;17.10;99.90;;;;;;5015321;28;20257;-67
2023/09/24 09:06:53;;;;;;;2.47;2.30;;;17.30;99.90;;;;;;5020244;28;20669;-67
2023/09/24 09:09:26;;;;;;;5.27;2.27;;;17.40;99.90;;;;;;5019796;28;20215;-67
2023/09/24 09:11:54;;;;;;;5.17;2.33;;;17.50;99.90;;;;;;5022249;28;20739;-67
2023/09/24 09:14:35;;;;;;;3.93;2.50;;;17.60;99.90;;;;;;5024605;28;20255;-67
2023/09/24 09:17:05;;;;;;;5.00;2.33;;;17.60;99.90;;;;;;5022437;28;20229;-67
2023/09/24 09:19:49;;;;;;;3.40;2.03;;;17.80;99.90;;;;;;5022708;28;20222;-67
2023/09/24 09:22:19;;;;;;;4.07;2.70;;;18.00;99.90;;;;;;5024358;28;20316;-67
2023/09/24 09:24:49;;;;;;;5.70;2.37;;;18.10;99.90;;;;;;5024961;28;20288;-66
2023/09/24 09:27:17;;;;;;;3.87;2.37;;;18.00;99.90;;;;;;5024404;28;20206;-67
2023/09/24 09:29:46;;;;;;;6.60;2.60;;;18.00;99.90;;;;;;5029568;28;20220;-67
2023/09/24 09:32:16;;;;;;;5.23;2.53;;;18.00;99.90;;;;;;5022939;28;20229;-64
2023/09/24 09:34:55;;;;;;;3.53;2.97;;;18.00;99.90;;;;;;5020208;28;20229;-61
2023/09/24 09:37:23;;;;;;;2.50;2.30;;;17.90;99.90;;;;;;5028672;28;20248;-62
2023/09/24 09:39:53;;;;;;;5.75;3.00;;;18.00;99.90;;;;;;5021253;28;20490;-63
2023/09/24 09:42:24;;;;;;;6.63;3.10;;;18.10;99.90;;;;;;5027497;28;20193;-63
2023/09/24 09:44:52;;;;;;;3.90;2.80;;;18.30;99.90;;;;;;5022800;28;20229;-63
2023/09/24 09:47:27;;;;;;;8.40;3.50;;;18.40;99.90;;;;;;5021725;28;20224;-63
2023/09/24 09:49:59;;;;;;;8.33;3.70;;;18.50;99.90;;;;;;5022486;28;20214;-64
2023/09/24 09:52:34;;;;;;;4.77;3.47;;;18.50;99.90;;;;;;5026512;28;20329;-63
2023/09/24 09:55:05;;;;;;;5.80;3.17;;;18.50;1.00;;;;;;5025877;28;20228;-59
2023/09/24 09:57:34;;;;;;;5.30;3.37;;;18.50;1.00;;;;;;5022251;28;20201;-59
2023/09/24 10:00:05;;;;;;;4.27;3.30;;;18.60;1.00;;;;;;5024336;28;20227;-59
2023/09/24 10:02:37;;;;;;;6.27;3.47;;;18.60;1.00;;;;;;5030477;28;20217;-60
2023/09/24 10:05:07;;;;;;;5.47;3.07;;;18.60;1.00;;;;;;5026463;28;20224;-60
2023/09/24 10:07:37;;;;;;;6.30;3.13;;;18.60;1.00;;;;;;5029606;28;20727;-58
2023/09/24 10:10:42;;;;;;;6.07;2.93;;;18.60;1.00;;;;;;5028633;28;20621;-58
2023/09/24 10:13:49;;;;;;;5.47;3.13;;;18.60;1.00;;;;;;5025162;28;20240;-60
2023/09/24 10:16:38;;;;;;;5.83;2.90;;;18.80;1.00;;;;;;5021963;28;20233;-60
2023/09/24 10:19:10;;;;;;;5.20;2.83;;;18.90;1.00;;;;;;5023745;28;20225;-58
2023/09/24 10:21:39;;;;;;;14.80;3.20;;;19.00;1.00;;;;;;5026801;28;20211;-60
2023/09/24 10:24:41;;;;;;;4.10;3.37;;;19.10;1.00;;;;;;5029194;28;20492;-57
2023/09/24 10:27:09;;;;;;;4.27;2.50;;;19.20;1.00;;;;;;5031728;28;20209;-61
2023/09/24 10:30:03;;;;;;;2.97;2.73;;;19.20;1.00;;;;;;5023443;28;20237;-61
2023/09/24 10:32:49;;;;;;;4.63;3.83;;;19.30;1.00;;;;;;5022653;28;20214;-61
2023/09/24 10:35:19;;;;;;;3.50;2.37;;;19.40;93.90;;;;;;5023253;28;20260;-61
2023/09/24 10:38:04;;;;;;;5.17;2.03;;;19.60;1.00;;;;;;5029232;28;20728;-61
2023/09/24 10:40:34;;;;;;;3.43;1.90;;;19.70;1.00;;;;;;5029203;28;20236;-58
2023/09/24 10:43:12;;;;;;;3.10;2.20;;;19.70;1.00;;;;;;5028193;28;20217;-59
2023/09/24 10:46:15;;;;;;;2.13;2.03;;;19.70;99.90;;;;;;5021577;28;20207;-59
2023/09/24 10:48:44;;;;;;;2.20;1.97;;;19.70;99.90;;;;;;5019122;28;20208;-59
2023/09/24 10:51:19;;;;;;;2.40;2.07;;;19.60;99.90;;;;;;5025809;28;20209;-59
2023/09/24 10:53:48;;;;;;;2.27;1.90;;;19.60;99.90;;;;;;5024722;28;20232;-59
2023/09/24 10:56:17;;;;;;;2.40;1.90;;;19.80;99.90;;;;;;5025757;28;20220;-59
2023/09/24 10:58:51;;;;;;;3.50;2.07;;;19.80;99.90;;;;;;5024208;28;20229;-57
2023/09/24 11:01:30;;;;;;;2.33;1.90;;;19.90;99.90;;;;;;5024530;28;20307;-60
2023/09/24 11:03:58;;;;;;;4.13;1.83;;;20.00;99.90;;;;;;5025679;28;20224;-59
2023/09/24 11:06:32;;;;;;;3.43;1.70;;;20.10;99.90;;;;;;5018606;28;20280;-60
2023/09/24 11:09:17;;;;;;;2.13;1.50;;;20.20;99.90;;;;;;5025369;28;20225;-59
2023/09/24 11:11:46;;;;;;;1.93;1.43;;;20.20;99.90;;;;;;5023554;28;20221;-60
2023/09/24 11:14:22;;;;;;;2.50;1.50;;;20.20;99.90;;;;;;5024270;28;20287;-59
2023/09/24 11:16:52;;;;;;;3.97;1.90;;;20.40;99.90;;;;;;5024521;28;20777;-60
2023/09/24 11:19:43;;;;;;;2.80;1.90;;;20.60;99.90;;;;;;5027338;28;22262;-59
2023/09/24 11:22:19;;;;;;;4.03;1.60;;;20.60;99.90;;;;;;5026905;28;20845;-60
2023/09/24 11:25:05;;;;;;;3.80;1.50;;;20.60;99.90;;;;;;5024218;28;20214;-59
2023/09/24 11:27:35;;;;;;;2.50;1.50;;;20.50;99.90;;;;;;5031254;28;20205;-59
2023/09/24 11:30:05;;;;;;;1.53;1.43;;;20.50;99.90;;;;;;5019531;28;20221;-59
2023/09/24 11:32:33;;;;;;;1.63;1.53;;;20.40;99.90;;;;;;5022711;28;20764;-59
2023/09/24 11:35:07;;;;;;;1.70;1.60;;;20.60;99.90;;;;;;5028167;28;20615;-59
2023/09/24 11:37:52;;;;;;;6.17;3.57;;;20.50;99.90;;;;;;5025817;28;20279;-59
2023/09/24 11:40:22;;;;;;;2.63;2.43;;;20.50;99.90;;;;;;5022712;28;20221;-59
2023/09/24 11:42:51;;;;;;;11.23;6.87;;;20.40;99.90;;;;;;5024728;28;20301;-59
2023/09/24 11:45:35;;;;;;;1.90;1.50;;;20.60;99.90;;;;;;5027542;28;20201;-58
2023/09/24 11:48:04;;;;;;;2.53;1.93;;;20.80;99.90;;;;;;5027386;28;20217;-59
2023/09/24 11:50:38;;;;;;;2.10;1.73;;;20.70;99.90;;;;;;5027575;28;20698;-59
2023/09/24 11:53:08;;;;;;;3.00;1.50;;;20.60;99.90;;;;;;5025586;28;20308;-59
2023/09/24 11:55:36;;;;;;;1.83;1.67;;;20.70;99.90;;;;;;5025685;28;20233;-60
2023/09/24 11:58:06;;;;;;;3.43;1.50;;;20.90;99.90;;;;;;5023014;28;20229;-58
2023/09/24 12:00:36;;;;;;;4.33;2.13;;;21.10;99.90;;;;;;5026039;28;20197;-60
2023/09/24 12:03:06;;;;;;;1.73;1.60;;;21.30;99.90;;;;;;5058936;28;20239;-59
2023/09/24 12:05:35;;;;;;;1.67;1.57;;;21.10;99.90;;;;;;5027049;28;20217;-59
2023/09/24 12:08:05;;;;;;;2.77;1.50;;;21.20;99.90;;;;;;5026456;28;20597;-59
2023/09/24 12:10:37;;;;;;;2.27;1.53;;;21.00;99.90;;;;;;5028452;28;20225;-59
2023/09/24 12:13:06;;;;;;;1.67;1.57;;;21.10;99.90;;;;;;5029538;28;20236;-60
2023/09/24 12:15:35;;;;;;;1.70;1.30;;;21.30;99.90;;;;;;5027656;28;20197;-59
2023/09/24 12:18:05;;;;;;;2.57;1.33;;;21.30;99.90;;;;;;5008279;28;20247;-58
2023/09/24 12:20:35;;;;;;;4.00;1.37;;;21.30;99.90;;;;;;5020293;28;20233;-59
2023/09/24 12:23:06;;;;;;;2.70;1.50;;;21.20;99.90;;;;;;5026088;28;20222;-59
2023/09/24 12:25:37;;;;;;;1.20;1.10;;;21.30;99.90;;;;;;5023248;28;20238;-58
2023/09/24 12:28:08;;;;;;;3.17;1.33;;;21.30;99.90;;;;;;5027511;28;20283;-58
2023/09/24 12:30:37;;;;;;;1.47;1.37;;;21.30;99.90;;;;;;5029443;28;20195;-58
2023/09/24 12:33:07;;;;;;;1.37;1.27;;;21.30;99.90;;;;;;5027518;28;20302;-58
2023/09/24 12:35:41;;;;;;;1.50;1.40;;;21.30;99.90;;;;;;5028428;28;20225;-59
2023/09/24 12:38:11;;;;;;;1.63;1.43;;;21.40;99.90;;;;;;5027108;28;20218;-59
2023/09/24 12:40:41;;;;;;;1.90;1.30;;;21.40;99.90;;;;;;5024707;28;20226;-59
2023/09/24 12:43:09;;;;;;;1.83;1.40;;;21.40;99.90;;;;;;5026940;28;20226;-58
2023/09/24 12:45:38;;;;;;;1.40;1.30;;;21.60;99.90;;;;;;5030419;28;20250;-59
2023/09/24 12:48:07;;;;;;;1.57;1.47;;;21.70;99.90;;;;;;5029009;28;20182;-58
2023/09/24 12:50:36;;;;;;;1.40;1.40;;;21.60;99.90;;;;;;5025621;28;20223;-58
2023/09/24 12:53:05;;;;;;;2.40;1.30;;;21.60;99.90;;;;;;5029995;28;20218;-58
2023/09/24 12:55:33;;;;;;;2.10;1.30;;;21.60;99.90;;;;;;5026819;28;20235;-58
2023/09/24 12:58:03;;;;;;;1.80;1.37;;;21.50;99.90;;;;;;5028347;28;20740;-58
2023/09/24 13:00:32;;;;;;;1.50;1.40;;;21.50;99.90;;;;;;5021504;28;20229;-58
2023/09/24 13:03:00;;;;;;;1.57;1.47;;;21.50;99.90;;;;;;5027625;28;20233;-58
2023/09/24 13:05:29;;;;;;;1.60;1.43;;;21.60;99.90;;;;;;5023853;28;20221;-58
2023/09/24 13:08:01;;;;;;;1.50;1.40;;;21.70;99.90;;;;;;5023990;28;20230;-58